createdAt,value
2018-06-05T00:00:53.031Z,0
2018-06-05T00:01:52.772Z,0
2018-06-05T00:02:53.062Z,0
2018-06-05T00:03:53.070Z,0
2018-06-05T00:04:53.080Z,0
2018-06-05T00:05:52.795Z,0
2018-06-05T00:06:53.327Z,0
2018-06-05T00:07:53.330Z,0
2018-06-05T00:08:53.048Z,0
2018-06-05T00:09:53.329Z,0
2018-06-05T00:10:53.089Z,0
2018-06-05T00:11:53.321Z,0
2018-06-05T00:12:53.129Z,0
2018-06-05T00:13:53.323Z,0
2018-06-05T00:14:52.814Z,0
2018-06-05T00:15:52.804Z,0
2018-06-05T00:16:53.072Z,0
2018-06-05T00:17:53.079Z,0
2018-06-05T00:18:53.069Z,0
2018-06-05T00:19:53.117Z,0
2018-06-05T00:20:53.093Z,0
2018-06-05T00:21:53.343Z,0
2018-06-05T00:22:53.089Z,0
2018-06-05T00:23:52.583Z,0
2018-06-05T00:24:53.086Z,0
2018-06-05T00:25:53.087Z,0
2018-06-05T00:26:53.149Z,0
2018-06-05T00:27:53.102Z,0
2018-06-05T00:28:52.839Z,0
2018-06-05T00:29:52.848Z,0
2018-06-05T00:30:52.850Z,0
2018-06-05T00:31:53.367Z,0
2018-06-05T00:32:53.122Z,0
2018-06-05T00:33:52.858Z,0
2018-06-05T00:34:53.395Z,0
2018-06-05T00:35:52.871Z,0
2018-06-05T00:36:52.868Z,0
2018-06-05T00:37:53.131Z,0
2018-06-05T00:38:53.380Z,0
2018-06-05T00:39:52.892Z,0
2018-06-05T00:40:53.131Z,0
2018-06-05T00:41:53.129Z,0
2018-06-05T00:42:53.133Z,0
2018-06-05T00:43:53.408Z,0
2018-06-05T00:44:53.129Z,0
2018-06-05T00:45:53.159Z,0
2018-06-05T00:46:53.146Z,0
2018-06-05T00:47:53.164Z,0
2018-06-05T00:48:52.898Z,0
2018-06-05T00:49:52.894Z,0
2018-06-05T00:50:52.905Z,0
2018-06-05T00:51:53.434Z,0
2018-06-05T00:52:53.710Z,0
2018-06-05T00:53:52.917Z,0
2018-06-05T00:54:53.158Z,0
2018-06-05T00:55:53.441Z,0
2018-06-05T00:56:53.445Z,0
2018-06-05T00:57:53.016Z,0
2018-06-05T00:58:53.170Z,0
2018-06-05T00:59:52.916Z,0
2018-06-05T01:00:53.443Z,0
2018-06-05T01:01:53.441Z,0
2018-06-05T01:02:53.431Z,0
2018-06-05T01:03:52.919Z,0
2018-06-05T01:04:53.446Z,0
2018-06-05T01:05:53.444Z,0
2018-06-05T01:06:53.475Z,0
2018-06-05T01:07:53.194Z,0
2018-06-05T01:08:52.677Z,0
2018-06-05T01:09:53.189Z,0
2018-06-05T01:10:53.193Z,0
2018-06-05T01:11:52.676Z,0
2018-06-05T01:12:52.950Z,0
2018-06-05T01:13:53.218Z,0
2018-06-05T01:14:52.953Z,0
2018-06-05T01:15:53.202Z,0
2018-06-05T01:16:53.206Z,0
2018-06-05T01:17:53.228Z,0
2018-06-05T01:18:53.213Z,0
2018-06-05T01:19:53.219Z,0
2018-06-05T01:20:53.228Z,0
2018-06-05T01:21:52.962Z,0
2018-06-05T01:22:52.959Z,0
2018-06-05T01:23:52.965Z,0
2018-06-05T01:24:53.228Z,0
2018-06-05T01:25:53.221Z,0
2018-06-05T01:26:53.479Z,0
2018-06-05T01:27:53.003Z,0
2018-06-05T01:28:53.249Z,0
2018-06-05T01:29:52.993Z,0
2018-06-05T01:30:53.506Z,0
2018-06-05T01:31:52.989Z,0
2018-06-05T01:32:53.261Z,0
2018-06-05T01:33:52.977Z,0
2018-06-05T01:34:53.239Z,0
2018-06-05T01:35:52.728Z,0
2018-06-05T01:36:53.530Z,0
2018-06-05T01:37:53.264Z,0
2018-06-05T01:38:53.568Z,0
2018-06-05T01:39:52.731Z,0
2018-06-05T01:40:53.276Z,0
2018-06-05T01:41:52.998Z,0
2018-06-05T01:42:53.248Z,0
2018-06-05T01:43:53.015Z,0
2018-06-05T01:44:53.523Z,0
2018-06-05T01:45:53.524Z,0
2018-06-05T01:46:53.526Z,0
2018-06-05T01:47:53.023Z,0
2018-06-05T01:48:53.278Z,0
2018-06-05T01:49:53.018Z,0
2018-06-05T01:50:53.301Z,0
2018-06-05T01:51:53.037Z,0
2018-06-05T01:52:53.555Z,0
2018-06-05T01:53:53.313Z,0
2018-06-05T01:54:53.294Z,0
2018-06-05T01:55:53.282Z,0
2018-06-05T01:56:53.030Z,0
2018-06-05T01:57:53.348Z,0
2018-06-05T01:58:53.306Z,0
2018-06-05T01:59:53.569Z,0
2018-06-05T02:00:53.296Z,0
2018-06-05T02:01:53.043Z,0
2018-06-05T02:02:52.786Z,0
2018-06-05T02:03:53.304Z,0
2018-06-05T02:04:53.304Z,0
2018-06-05T02:05:53.575Z,0
2018-06-05T02:06:53.323Z,0
2018-06-05T02:07:52.806Z,0
2018-06-05T02:08:53.566Z,0
2018-06-05T02:09:53.332Z,0
2018-06-05T02:10:53.053Z,0
2018-06-05T02:11:53.317Z,0
2018-06-05T02:12:53.312Z,0
2018-06-05T02:13:53.318Z,0
2018-06-05T02:14:52.801Z,0
2018-06-05T02:15:53.317Z,0
2018-06-05T02:16:53.580Z,0
2018-06-05T02:17:53.066Z,0
2018-06-05T02:18:53.323Z,0
2018-06-05T02:19:53.600Z,0
2018-06-05T02:20:53.079Z,0
2018-06-05T02:21:53.287Z,0
2018-06-05T02:22:53.332Z,0
2018-06-05T02:23:53.630Z,0
2018-06-05T02:24:52.821Z,0
2018-06-05T02:25:53.075Z,0
2018-06-05T02:26:53.090Z,0
2018-06-05T02:27:53.605Z,0
2018-06-05T02:28:53.369Z,0
2018-06-05T02:29:53.086Z,0
2018-06-05T02:30:53.374Z,0
2018-06-05T02:31:53.393Z,0
2018-06-05T02:32:53.100Z,0
2018-06-05T02:33:53.373Z,0
2018-06-05T02:34:53.361Z,0
2018-06-05T02:35:53.654Z,0
2018-06-05T02:36:53.639Z,0
2018-06-05T02:37:53.371Z,0
2018-06-05T02:38:53.400Z,0
2018-06-05T02:39:53.374Z,0
2018-06-05T02:40:53.394Z,4
2018-06-05T02:41:53.685Z,4
2018-06-05T02:42:53.628Z,4
2018-06-05T02:43:53.640Z,0
2018-06-05T02:44:53.125Z,0
2018-06-05T02:45:53.110Z,4
2018-06-05T02:46:53.122Z,4
2018-06-05T02:47:53.389Z,0
2018-06-05T02:48:53.375Z,4
2018-06-05T02:49:53.139Z,4
2018-06-05T02:50:53.423Z,4
2018-06-05T02:51:53.404Z,4
2018-06-05T02:52:53.380Z,8
2018-06-05T02:53:53.392Z,8
2018-06-05T02:54:53.673Z,12
2018-06-05T02:55:53.661Z,8
2018-06-05T02:56:53.447Z,12
2018-06-05T02:57:53.670Z,16
2018-06-05T02:58:53.395Z,16
2018-06-05T02:59:53.663Z,16
2018-06-05T03:00:53.145Z,16
2018-06-05T03:01:53.425Z,20
2018-06-05T03:02:53.160Z,24
2018-06-05T03:03:53.674Z,24
2018-06-05T03:04:53.661Z,28
2018-06-05T03:05:53.144Z,32
2018-06-05T03:06:53.698Z,36
2018-06-05T03:07:53.407Z,40
2018-06-05T03:08:53.677Z,48
2018-06-05T03:09:53.427Z,52
2018-06-05T03:10:53.428Z,56
2018-06-05T03:11:53.450Z,64
2018-06-05T03:12:53.164Z,72
2018-06-05T03:13:53.423Z,80
2018-06-05T03:14:53.166Z,88
2018-06-05T03:15:53.426Z,96
2018-06-05T03:16:53.450Z,104
2018-06-05T03:17:53.426Z,116
2018-06-05T03:18:53.727Z,124
2018-06-05T03:19:53.436Z,136
2018-06-05T03:20:53.178Z,148
2018-06-05T03:21:53.681Z,164
2018-06-05T03:22:53.688Z,176
2018-06-05T03:23:53.856Z,192
2018-06-05T03:24:53.182Z,200
2018-06-05T03:25:53.187Z,216
2018-06-05T03:26:53.444Z,236
2018-06-05T03:27:53.457Z,252
2018-06-05T03:28:53.723Z,272
2018-06-05T03:29:53.457Z,292
2018-06-05T03:30:53.725Z,316
2018-06-05T03:31:53.203Z,340
2018-06-05T03:32:53.450Z,368
2018-06-05T03:33:53.209Z,396
2018-06-05T03:34:53.191Z,424
2018-06-05T03:35:53.454Z,448
2018-06-05T03:36:53.466Z,484
2018-06-05T03:37:53.718Z,512
2018-06-05T03:38:53.464Z,548
2018-06-05T03:39:53.457Z,588
2018-06-05T03:40:53.606Z,628
2018-06-05T03:41:53.726Z,668
2018-06-05T03:42:53.722Z,704
2018-06-05T03:43:52.961Z,752
2018-06-05T03:44:53.740Z,796
2018-06-05T03:45:53.505Z,844
2018-06-05T03:46:53.723Z,888
2018-06-05T03:47:53.742Z,936
2018-06-05T03:48:53.470Z,992
2018-06-05T03:49:53.216Z,1044
2018-06-05T03:50:53.491Z,1100
2018-06-05T03:51:53.213Z,1164
2018-06-05T03:52:53.728Z,1284
2018-06-05T03:53:53.483Z,1436
2018-06-05T03:54:53.495Z,1584
2018-06-05T03:55:53.497Z,1700
2018-06-05T03:56:53.555Z,1768
2018-06-05T03:57:53.236Z,1788
2018-06-05T03:58:53.260Z,1768
2018-06-05T03:59:53.783Z,1768
2018-06-05T04:00:53.813Z,1832
2018-06-05T04:01:53.527Z,1904
2018-06-05T04:02:53.519Z,1904
2018-06-05T04:03:53.290Z,1880
2018-06-05T04:04:53.528Z,1928
2018-06-05T04:05:53.754Z,2128
2018-06-05T04:06:53.260Z,2372
2018-06-05T04:07:53.803Z,2436
2018-06-05T04:08:53.568Z,2464
2018-06-05T04:09:53.802Z,2496
2018-06-05T04:10:53.556Z,2652
2018-06-05T04:11:53.551Z,2852
2018-06-05T04:12:53.319Z,3084
2018-06-05T04:13:53.523Z,3412
2018-06-05T04:14:53.530Z,3596
2018-06-05T04:15:53.796Z,3776
2018-06-05T04:16:53.549Z,3892
2018-06-05T04:17:53.561Z,3996
2018-06-05T04:18:53.565Z,4108
2018-06-05T04:19:53.805Z,4168
2018-06-05T04:20:53.801Z,4212
2018-06-05T04:21:53.311Z,4272
2018-06-05T04:22:53.572Z,4372
2018-06-05T04:23:53.559Z,4444
2018-06-05T04:24:53.551Z,4472
2018-06-05T04:25:53.818Z,4572
2018-06-05T04:26:53.593Z,4648
2018-06-05T04:27:53.565Z,4632
2018-06-05T04:28:53.560Z,4716
2018-06-05T04:29:53.590Z,4772
2018-06-05T04:30:53.061Z,4412
2018-06-05T04:31:53.603Z,3692
2018-06-05T04:32:53.336Z,3084
2018-06-05T04:33:53.071Z,2900
2018-06-05T04:34:53.596Z,2888
2018-06-05T04:35:53.605Z,2892
2018-06-05T04:36:53.356Z,2908
2018-06-05T04:37:53.377Z,2944
2018-06-05T04:38:53.882Z,2976
2018-06-05T04:39:53.114Z,2936
2018-06-05T04:40:53.623Z,3000
2018-06-05T04:41:53.384Z,3044
2018-06-05T04:42:53.963Z,3108
2018-06-05T04:43:53.634Z,3160
2018-06-05T04:44:53.389Z,3212
2018-06-05T04:45:53.640Z,3256
2018-06-05T04:46:53.909Z,3308
2018-06-05T04:47:54.131Z,3864
2018-06-05T04:48:53.656Z,3524
2018-06-05T04:49:53.930Z,3780
2018-06-05T04:50:53.699Z,3416
2018-06-05T04:51:53.659Z,3512
2018-06-05T04:52:53.925Z,4204
2018-06-05T04:53:53.685Z,4100
2018-06-05T04:54:53.694Z,3968
2018-06-05T04:55:53.942Z,3608
2018-06-05T04:56:53.702Z,3716
2018-06-05T04:57:53.734Z,3760
2018-06-05T04:58:53.965Z,3820
2018-06-05T04:59:53.949Z,3880
2018-06-05T05:00:53.438Z,3920
2018-06-05T05:01:53.695Z,4128
2018-06-05T05:02:53.700Z,4240
2018-06-05T05:03:53.711Z,4052
2018-06-05T05:04:53.965Z,4096
2018-06-05T05:05:53.781Z,4156
2018-06-05T05:06:53.723Z,4228
2018-06-05T05:07:53.455Z,4324
2018-06-05T05:08:53.733Z,4416
2018-06-05T05:09:53.724Z,4476
2018-06-05T05:10:53.471Z,4544
2018-06-05T05:11:53.739Z,4620
2018-06-05T05:12:53.237Z,5004
2018-06-05T05:13:53.218Z,4808
2018-06-05T05:14:53.487Z,4884
2018-06-05T05:15:53.754Z,4932
2018-06-05T05:16:53.488Z,4968
2018-06-05T05:17:54.013Z,4980
2018-06-05T05:18:53.503Z,4972
2018-06-05T05:19:54.026Z,4964
2018-06-05T05:20:53.493Z,4956
2018-06-05T05:21:54.020Z,5188
2018-06-05T05:22:53.754Z,5200
2018-06-05T05:23:53.770Z,4976
2018-06-05T05:24:53.794Z,4972
2018-06-05T05:25:53.787Z,4964
2018-06-05T05:26:53.775Z,5000
2018-06-05T05:27:53.520Z,5052
2018-06-05T05:28:53.780Z,5208
2018-06-05T05:29:53.776Z,5612
2018-06-05T05:30:54.338Z,5772
2018-06-05T05:31:53.519Z,9820
2018-06-05T05:32:53.791Z,5748
2018-06-05T05:33:54.070Z,5636
2018-06-05T05:34:53.571Z,5712
2018-06-05T05:35:53.956Z,5828
2018-06-05T05:36:54.059Z,5884
2018-06-05T05:37:53.828Z,6032
2018-06-05T05:38:53.838Z,6120
2018-06-05T05:39:53.552Z,9728
2018-06-05T05:40:53.554Z,5968
2018-06-05T05:41:54.071Z,5956
2018-06-05T05:42:53.814Z,6316
2018-06-05T05:43:53.828Z,5764
2018-06-05T05:44:53.301Z,6012
2018-06-05T05:45:54.100Z,5608
2018-06-05T05:46:53.582Z,5576
2018-06-05T05:47:53.858Z,5520
2018-06-05T05:48:53.837Z,5504
2018-06-05T05:49:53.857Z,5696
2018-06-05T05:50:54.110Z,5484
2018-06-05T05:51:54.129Z,5488
2018-06-05T05:52:53.843Z,5528
2018-06-05T05:53:53.855Z,5608
2018-06-05T05:54:54.495Z,5668
2018-06-05T05:55:54.153Z,5692
2018-06-05T05:56:53.886Z,5724
2018-06-05T05:57:53.904Z,5772
2018-06-05T05:58:53.901Z,5828
2018-06-05T05:59:53.648Z,5932
2018-06-05T06:00:53.912Z,6120
2018-06-05T06:01:53.935Z,6336
2018-06-05T06:02:53.895Z,6036
2018-06-05T06:03:54.004Z,5984
2018-06-05T06:04:53.657Z,5976
2018-06-05T06:05:53.902Z,5968
2018-06-05T06:06:54.176Z,5980
2018-06-05T06:07:53.401Z,6004
2018-06-05T06:08:53.916Z,6040
2018-06-05T06:09:53.907Z,6100
2018-06-05T06:10:54.025Z,6472
2018-06-05T06:11:53.928Z,6272
2018-06-05T06:12:54.188Z,6360
2018-06-05T06:13:53.669Z,6448
2018-06-05T06:23:58.874Z,14940
2018-06-05T06:24:58.621Z,14820
2018-06-05T06:25:58.992Z,14888
2018-06-05T06:26:59.328Z,15168
2018-06-05T06:27:58.888Z,15264
2018-06-05T06:28:59.134Z,15296
2018-06-05T06:29:58.622Z,15392
2018-06-05T06:30:59.160Z,15392
2018-06-05T06:31:58.891Z,15744
2018-06-05T06:32:58.919Z,15456
2018-06-05T06:33:58.908Z,15424
2018-06-05T06:34:58.930Z,15424
2018-06-05T06:35:58.935Z,15488
2018-06-05T06:36:58.982Z,15424
2018-06-05T06:37:59.197Z,15424
2018-06-05T06:38:58.942Z,15488
2018-06-05T06:39:59.212Z,15488
2018-06-05T06:40:58.957Z,15840
2018-06-05T06:41:58.989Z,15552
2018-06-05T06:42:58.982Z,15552
2018-06-05T06:43:59.019Z,15520
2018-06-05T06:44:59.249Z,15552
2018-06-05T06:45:59.004Z,15520
2018-06-05T06:46:58.760Z,15488
2018-06-05T06:47:58.767Z,15332
2018-06-05T06:48:59.396Z,15180
2018-06-05T06:49:59.029Z,15104
2018-06-05T06:50:59.302Z,15048
2018-06-05T06:51:59.302Z,15052
2018-06-05T06:52:58.815Z,15044
2018-06-05T06:53:59.080Z,15088
2018-06-05T06:54:59.069Z,15108
2018-06-05T06:55:59.088Z,15104
2018-06-05T06:56:58.892Z,14980
2018-06-05T06:57:58.913Z,14808
2018-06-05T06:58:59.367Z,14604
2018-06-05T06:59:58.606Z,14444
2018-06-05T07:00:59.399Z,14300
2018-06-05T07:01:59.151Z,14176
2018-06-05T07:02:59.393Z,13840
2018-06-05T07:03:59.142Z,13288
2018-06-05T07:04:59.149Z,12892
2018-06-05T07:05:59.163Z,12852
2018-06-05T07:06:59.173Z,12896
2018-06-05T07:07:58.921Z,12912
2018-06-05T07:08:59.462Z,13056
2018-06-05T07:09:59.194Z,13352
2018-06-05T07:10:59.474Z,13420
2018-06-05T07:11:58.966Z,13384
2018-06-05T07:12:59.492Z,13420
2018-06-05T07:13:58.782Z,13532
2018-06-05T07:14:58.995Z,13952
2018-06-05T07:15:59.022Z,14248
2018-06-05T07:16:59.265Z,14404
2018-06-05T07:17:59.008Z,14500
2018-06-05T07:18:59.037Z,14572
2018-06-05T07:19:59.293Z,14552
2018-06-05T07:20:59.292Z,14604
2018-06-05T07:21:59.601Z,14584
2018-06-05T07:22:59.085Z,14548
2018-06-05T07:23:59.126Z,14500
2018-06-05T07:24:59.350Z,14476
2018-06-05T07:25:59.354Z,14496
2018-06-05T07:26:59.360Z,14384
2018-06-05T07:27:59.356Z,14372
2018-06-05T07:28:59.362Z,14212
2018-06-05T07:29:58.873Z,14084
2018-06-05T07:30:59.405Z,14324
2018-06-05T07:31:59.414Z,14472
2018-06-05T07:32:59.421Z,14608
2018-06-05T07:33:59.698Z,14668
2018-06-05T07:34:59.167Z,14684
2018-06-05T07:35:59.771Z,14756
2018-06-05T07:36:59.479Z,14644
2018-06-05T07:37:59.537Z,14544
2018-06-05T07:38:59.477Z,14372
2018-06-05T07:39:59.228Z,14360
2018-06-05T07:40:58.969Z,14220
2018-06-05T07:41:59.526Z,14056
2018-06-05T07:42:59.242Z,13948
2018-06-05T07:43:59.694Z,14076
2018-06-05T07:44:59.802Z,14112
2018-06-05T07:45:59.550Z,14088
2018-06-05T07:46:59.567Z,14172
2018-06-05T07:47:59.556Z,14328
2018-06-05T07:48:59.344Z,14284
2018-06-05T07:49:59.671Z,14240
2018-06-05T07:50:59.333Z,14168
2018-06-05T07:51:59.850Z,14124
2018-06-05T07:52:59.860Z,14404
2018-06-05T07:53:59.635Z,14348
2018-06-05T07:54:59.873Z,14260
2018-06-05T07:55:59.883Z,14236
2018-06-05T07:56:59.904Z,14176
2018-06-05T07:57:59.915Z,14160
2018-06-05T07:58:59.674Z,14060
2018-06-05T07:59:59.155Z,13960
2018-06-05T08:00:59.433Z,13872
2018-06-05T08:01:59.698Z,13800
2018-06-05T08:02:59.965Z,13724
2018-06-05T08:03:59.714Z,13616
2018-06-05T08:04:59.732Z,13596
2018-06-05T08:05:59.480Z,13524
2018-06-05T08:06:59.998Z,13444
2018-06-05T08:08:00.014Z,13460
2018-06-05T08:08:59.557Z,13448
2018-06-05T08:09:59.777Z,13432
2018-06-05T08:10:59.789Z,13348
2018-06-05T08:11:59.607Z,13276
2018-06-05T08:12:59.808Z,13192
2018-06-05T08:14:05.173Z,13128
2018-06-05T08:14:59.911Z,13048
2018-06-05T08:16:00.113Z,12896
2018-06-05T08:17:00.156Z,12848
2018-06-05T08:17:59.363Z,12808
2018-06-05T08:18:59.613Z,12752
2018-06-05T08:19:59.366Z,12700
2018-06-05T08:21:00.187Z,12592
2018-06-05T08:21:59.634Z,12524
2018-06-05T08:23:00.218Z,12452
2018-06-05T08:23:59.926Z,12388
2018-06-05T08:25:00.219Z,12272
2018-06-05T08:25:59.940Z,12232
2018-06-05T08:26:59.704Z,12152
2018-06-05T08:27:59.447Z,12092
2018-06-05T08:29:00.819Z,12036
2018-06-05T08:29:59.989Z,11952
2018-06-05T08:30:59.479Z,11920
2018-06-05T08:32:00.028Z,11900
2018-06-05T08:33:00.284Z,11852
2018-06-05T08:33:59.509Z,11800
2018-06-05T08:34:59.786Z,11752
2018-06-05T08:36:00.333Z,11640
2018-06-05T08:37:00.338Z,11588
2018-06-05T08:38:00.455Z,11508
2018-06-05T08:39:00.077Z,11464
2018-06-05T08:40:00.087Z,11412
2018-06-05T08:40:59.825Z,11396
2018-06-05T08:41:59.835Z,11372
2018-06-05T08:42:59.865Z,11320
2018-06-05T08:43:59.870Z,11232
2018-06-05T08:45:00.127Z,11168
2018-06-05T08:46:00.170Z,11092
2018-06-05T08:47:00.160Z,11032
2018-06-05T08:47:59.902Z,11008
2018-06-05T08:49:00.189Z,11028
2018-06-05T08:50:00.193Z,10904
2018-06-05T08:50:59.974Z,10888
2018-06-05T08:51:59.930Z,10876
2018-06-05T08:52:59.690Z,10828
2018-06-05T08:54:00.279Z,10780
2018-06-05T08:55:00.504Z,10768
2018-06-05T08:56:00.508Z,10768
2018-06-05T08:57:00.013Z,10828
2018-06-05T08:58:00.279Z,10736
2018-06-05T08:59:00.277Z,10700
2018-06-05T09:00:00.776Z,10648
2018-06-05T09:01:00.302Z,10628
2018-06-05T09:02:00.024Z,10612
2018-06-05T09:03:00.324Z,10600
2018-06-05T09:04:00.345Z,10616
2018-06-05T09:05:00.340Z,10616
2018-06-05T09:06:00.106Z,10688
2018-06-05T09:07:00.081Z,10592
2018-06-05T09:07:59.830Z,10580
2018-06-05T09:09:00.096Z,10496
2018-06-05T09:10:00.374Z,10420
2018-06-05T09:11:00.760Z,10428
2018-06-05T09:12:00.125Z,10416
2018-06-05T09:13:00.540Z,10404
2018-06-05T09:13:59.880Z,10404
2018-06-05T09:15:00.138Z,10452
2018-06-05T09:16:00.419Z,10404
2018-06-05T09:17:00.423Z,10372
2018-06-05T09:18:00.436Z,10384
2018-06-05T09:19:00.432Z,10388
2018-06-05T09:20:00.454Z,10388
2018-06-05T09:21:00.699Z,10380
2018-06-05T09:22:00.204Z,10392
2018-06-05T09:23:00.204Z,10472
2018-06-05T09:24:00.737Z,10388
2018-06-05T09:25:00.478Z,10376
2018-06-05T09:26:00.480Z,10368
2018-06-05T09:27:00.486Z,10368
2018-06-05T09:28:00.479Z,10364
2018-06-05T09:29:00.557Z,10484
2018-06-05T09:30:00.265Z,10360
2018-06-05T09:31:00.760Z,10340
2018-06-05T09:32:00.522Z,10328
2018-06-05T09:33:00.510Z,10304
2018-06-05T09:34:00.522Z,10280
2018-06-05T09:35:00.317Z,10256
2018-06-05T09:36:00.297Z,10260
2018-06-05T09:37:00.015Z,10264
2018-06-05T09:38:00.310Z,10260
2018-06-05T09:39:00.842Z,10244
2018-06-05T09:40:01.643Z,10240
2018-06-05T09:41:00.591Z,10284
2018-06-05T09:42:00.851Z,10252
2018-06-05T09:43:00.845Z,10256
2018-06-05T09:44:00.862Z,10240
2018-06-05T09:45:00.601Z,10232
2018-06-05T09:46:00.608Z,10172
2018-06-05T09:47:01.104Z,10176
2018-06-05T09:48:00.615Z,10168
2018-06-05T09:49:00.617Z,10172
2018-06-05T09:50:00.656Z,10136
2018-06-05T09:51:00.654Z,10108
2018-06-05T09:52:00.729Z,10088
2018-06-05T09:53:00.655Z,10064
2018-06-05T09:54:00.163Z,10088
2018-06-05T09:55:00.929Z,10008
2018-06-05T09:56:00.933Z,9972
2018-06-05T09:57:00.705Z,9956
2018-06-05T09:58:01.133Z,9920
2018-06-05T09:59:00.447Z,9884
2018-06-05T10:00:00.183Z,9828
2018-06-05T10:01:00.441Z,9772
2018-06-05T10:02:00.446Z,9720
2018-06-05T10:03:00.963Z,9732
2018-06-05T10:04:01.174Z,9624
2018-06-05T10:05:01.000Z,9560
2018-06-05T10:06:00.727Z,9516
2018-06-05T10:07:00.745Z,9492
2018-06-05T10:08:00.497Z,9452
2018-06-05T10:09:00.991Z,9416
2018-06-05T10:10:00.585Z,9368
2018-06-05T10:11:00.500Z,9368
2018-06-05T10:12:00.763Z,9272
2018-06-05T10:13:00.754Z,9232
2018-06-05T10:14:00.529Z,9212
2018-06-05T10:15:01.080Z,9172
2018-06-05T10:16:00.792Z,9132
2018-06-05T10:17:01.077Z,9088
2018-06-05T10:18:00.536Z,9044
2018-06-05T10:19:01.092Z,8984
2018-06-05T10:20:00.814Z,8944
2018-06-05T10:21:00.572Z,8904
2018-06-05T10:22:01.091Z,8916
2018-06-05T10:53:23.262Z,8400
2018-06-05T10:54:23.785Z,8564
2018-06-05T10:55:23.520Z,8716
2018-06-05T10:56:23.308Z,8844
2018-06-05T10:57:23.281Z,8996
2018-06-05T10:58:23.287Z,9068
2018-06-05T10:59:23.283Z,9136
2018-06-05T11:00:23.951Z,9288
2018-06-05T11:01:23.624Z,9476
2018-06-05T11:02:23.823Z,9588
2018-06-05T11:03:23.581Z,9612
2018-06-05T11:04:23.589Z,9680
2018-06-05T11:05:23.324Z,9776
2018-06-05T11:06:23.338Z,9816
2018-06-05T11:07:23.854Z,9888
2018-06-05T11:08:23.361Z,9948
2018-06-05T11:09:23.636Z,9956
2018-06-05T11:10:23.609Z,9888
2018-06-05T11:11:23.675Z,9856
2018-06-05T11:12:23.616Z,9880
2018-06-05T11:13:23.911Z,9952
2018-06-05T11:14:23.620Z,10108
2018-06-05T11:15:23.650Z,10200
2018-06-05T11:16:23.755Z,10312
2018-06-05T11:17:23.902Z,10504
2018-06-05T11:18:23.808Z,10636
2018-06-05T11:19:23.904Z,10644
2018-06-05T11:20:23.942Z,10684
2018-06-05T11:21:23.485Z,10740
2018-06-05T11:22:23.676Z,10912
2018-06-05T11:23:24.019Z,11004
2018-06-05T11:24:23.951Z,11160
2018-06-05T11:25:23.948Z,10108
2018-06-05T11:26:23.851Z,9312
2018-06-05T11:27:23.966Z,10432
2018-06-05T11:28:23.744Z,11896
2018-06-05T11:29:23.990Z,9708
2018-06-05T11:30:23.731Z,10048
2018-06-05T11:31:23.764Z,11548
2018-06-05T11:32:23.231Z,11544
2018-06-05T11:33:23.522Z,11492
2018-06-05T11:34:23.495Z,11516
2018-06-05T11:35:24.031Z,11600
2018-06-05T11:36:23.767Z,11512
2018-06-05T11:37:23.797Z,11532
2018-06-05T11:38:23.790Z,10948
2018-06-05T11:39:23.807Z,9060
2018-06-05T11:40:23.800Z,9448
2018-06-05T11:41:23.284Z,10660
2018-06-05T11:42:23.308Z,10196
2018-06-05T11:43:23.826Z,10084
2018-06-05T11:44:24.082Z,8312
2018-06-05T11:45:23.579Z,8028
2018-06-05T11:46:23.392Z,8172
2018-06-05T11:47:23.840Z,8204
2018-06-05T11:48:24.117Z,9772
2018-06-05T11:49:23.591Z,10084
2018-06-05T11:50:24.111Z,10392
2018-06-05T11:51:23.620Z,10504
2018-06-05T11:52:24.145Z,10532
2018-06-05T11:53:23.949Z,10544
2018-06-05T11:54:23.954Z,9404
2018-06-05T11:55:23.888Z,9940
2018-06-05T11:56:24.019Z,9148
2018-06-05T11:57:23.669Z,10188
2018-06-05T11:58:23.400Z,8212
2018-06-05T11:59:24.193Z,7916
2018-06-05T12:00:24.192Z,9692
2018-06-05T12:01:23.955Z,9736
2018-06-05T12:02:24.206Z,9852
2018-06-05T12:03:23.968Z,10016
2018-06-05T12:04:23.686Z,10168
2018-06-05T12:05:23.962Z,10336
2018-06-05T12:06:23.957Z,10468
2018-06-05T12:07:23.967Z,10468
2018-06-05T12:08:23.749Z,10640
2018-06-05T12:09:23.728Z,10644
2018-06-05T12:10:23.988Z,10560
2018-06-05T12:11:24.305Z,10448
2018-06-05T12:12:24.253Z,10412
2018-06-05T12:13:25.109Z,10480
2018-06-05T12:14:23.774Z,10584
2018-06-05T12:15:24.024Z,10424
2018-06-05T12:16:24.094Z,10116
2018-06-05T12:17:23.770Z,9900
2018-06-05T12:18:23.792Z,9776
2018-06-05T12:19:24.313Z,9724
2018-06-05T12:20:23.797Z,9400
2018-06-05T12:21:24.166Z,9532
2018-06-05T12:22:23.804Z,9524
2018-06-05T12:23:23.580Z,9536
2018-06-05T12:24:24.330Z,9720
2018-06-05T12:25:24.377Z,9444
2018-06-05T12:26:24.428Z,8320
2018-06-05T12:27:24.098Z,8304
2018-06-05T12:28:24.104Z,8148
2018-06-05T12:29:24.128Z,8036
2018-06-05T12:30:23.865Z,7944
2018-06-05T12:31:24.407Z,7808
2018-06-05T12:32:23.870Z,7656
2018-06-05T12:33:23.889Z,7704
2018-06-05T12:34:24.471Z,7800
2018-06-05T12:35:23.889Z,7748
2018-06-05T12:36:24.516Z,7856
2018-06-05T12:37:23.909Z,7868
2018-06-05T12:38:23.917Z,7948
2018-06-05T12:39:23.922Z,8064
2018-06-05T12:40:23.999Z,8108
2018-06-05T12:41:24.502Z,8228
2018-06-05T12:42:24.457Z,8308
2018-06-05T12:43:24.212Z,8712
2018-06-05T12:44:23.978Z,8728
2018-06-05T12:45:24.481Z,8884
2018-06-05T12:46:24.223Z,10444
2018-06-05T12:47:23.974Z,10608
2018-06-05T12:48:24.241Z,10644
2018-06-05T12:49:23.989Z,10656
2018-06-05T12:50:23.721Z,10628
2018-06-05T12:51:24.542Z,10732
2018-06-05T12:52:24.639Z,10856
2018-06-05T12:53:24.664Z,10724
2018-06-05T12:54:24.536Z,10076
2018-06-05T12:55:24.014Z,10868
2018-06-05T12:56:24.140Z,10740
2018-06-05T12:57:23.777Z,11056
2018-06-05T12:58:24.311Z,11356
2018-06-05T12:59:24.321Z,11888
2018-06-05T13:00:24.051Z,11236
2018-06-05T13:01:24.363Z,11432
2018-06-05T13:02:24.061Z,11292
2018-06-05T13:03:24.586Z,11120
2018-06-05T13:04:24.335Z,10760
2018-06-05T13:05:24.734Z,10504
2018-06-05T13:06:24.147Z,10276
2018-06-05T13:07:24.631Z,10096
2018-06-05T13:08:24.405Z,10004
2018-06-05T13:09:24.396Z,9916
2018-06-05T13:10:24.115Z,9596
2018-06-05T13:11:24.199Z,9264
2018-06-05T13:12:24.397Z,8928
2018-06-05T13:13:24.650Z,8672
2018-06-05T13:14:24.674Z,9332
2018-06-05T13:15:24.682Z,8108
2018-06-05T13:16:24.295Z,7992
2018-06-05T13:17:24.922Z,7796
2018-06-05T13:18:24.437Z,7812
2018-06-05T13:19:24.431Z,7784
2018-06-05T13:20:24.184Z,7740
2018-06-05T13:21:24.531Z,7472
2018-06-05T13:22:24.452Z,7088
2018-06-05T13:23:25.005Z,6796
2018-06-05T13:24:24.460Z,6668
2018-06-05T13:25:24.514Z,6648
2018-06-05T13:26:24.724Z,6592
2018-06-05T13:27:24.488Z,6688
2018-06-05T13:28:24.486Z,6908
2018-06-05T13:29:24.559Z,7108
2018-06-05T13:30:24.514Z,7292
2018-06-05T13:31:24.657Z,7504
2018-06-05T13:32:24.517Z,7684
2018-06-05T13:33:24.511Z,7856
2018-06-05T13:34:24.788Z,7992
2018-06-05T13:35:24.519Z,8224
2018-06-05T13:36:24.819Z,8448
2018-06-05T13:37:24.542Z,8732
2018-06-05T13:38:24.031Z,9300
2018-06-05T13:39:24.294Z,9256
2018-06-05T13:40:24.566Z,9712
2018-06-05T13:41:24.396Z,9272
2018-06-05T13:42:24.636Z,9332
2018-06-05T13:43:24.831Z,9660
2018-06-05T13:44:24.579Z,9852
2018-06-05T13:45:24.891Z,9852
2018-06-05T13:46:24.638Z,9784
2018-06-05T13:47:24.602Z,9788
2018-06-05T13:48:24.338Z,9812
2018-06-05T13:49:24.613Z,9920
2018-06-05T13:50:24.878Z,9932
2018-06-05T13:51:24.632Z,9960
2018-06-05T13:52:25.047Z,9896
2018-06-05T13:53:24.639Z,9808
2018-06-05T13:54:24.657Z,9656
2018-06-05T13:55:24.385Z,10224
2018-06-05T13:56:24.659Z,9732
2018-06-05T13:57:24.398Z,9632
2018-06-05T13:58:24.399Z,9648
2018-06-05T13:59:24.940Z,9244
2018-06-05T14:00:24.940Z,9296
2018-06-05T14:01:24.965Z,9316
2018-06-05T14:02:24.426Z,9288
2018-06-05T14:03:24.435Z,9384
2018-06-05T14:04:24.960Z,9592
2018-06-05T14:05:24.966Z,9872
2018-06-05T14:06:24.790Z,10096
2018-06-05T14:07:24.973Z,10264
2018-06-05T14:08:24.772Z,10388